Time;durP1;ratioP1;P1;durP2;ratioP2;P2;SDS_P1;SDS_P2;PMS_P1;PMS_P2;Temp;Humidity;BMP_temperature;BMP_pressure;BME280_temperature;BME280_humidity;BME280_pressure;Samples;Min_cycle;Max_cycle;Signal;HPM_P1;HPM_P2
2021/09/14 00:00:34;;;;;;;9.57;5.77;;;;;;;16.15;75.07;101051.91;4809096;61;21148;-87
2021/09/14 00:05:41;;;;;;;22.13;12.50;;;;;;;16.02;74.66;101054.02;4808485;61;21191;-89
2021/09/14 00:10:47;;;;;;;21.57;11.73;;;;;;;15.78;74.16;101053.93;4808909;61;21195;-93
2021/09/14 00:15:53;;;;;;;18.43;10.87;;;;;;;15.68;74.50;101050.91;4808742;61;22214;-85
2021/09/14 00:20:59;;;;;;;14.47;8.10;;;;;;;15.47;74.63;101050.98;4808484;61;21195;-87
2021/09/14 00:26:05;;;;;;;9.83;7.93;;;;;;;15.40;75.26;101056.03;4808942;61;21526;-87
2021/09/14 00:31:11;;;;;;;12.53;7.67;;;;;;;15.27;75.39;101055.45;4808823;61;21222;-93
2021/09/14 00:36:17;;;;;;;9.73;7.47;;;;;;;15.27;75.74;101064.77;4810838;60;21181;-92
2021/09/14 00:41:23;;;;;;;10.30;5.67;;;;;;;15.31;75.77;101058.66;4844727;60;21221;-86
2021/09/14 00:46:32;;;;;;;7.40;4.77;;;;;;;15.33;75.51;101053.55;4900729;60;21127;-84
2021/09/14 00:51:39;;;;;;;8.30;5.73;;;;;;;15.28;75.47;101048.27;4900851;60;22173;-87
2021/09/14 00:56:46;;;;;;;7.63;5.33;;;;;;;15.24;75.58;101047.72;4900986;60;21214;-88
2021/09/14 01:01:55;;;;;;;19.20;11.23;;;;;;;15.23;75.76;101046.52;4901383;60;21201;-90
2021/09/14 01:07:03;;;;;;;17.70;8.37;;;;;;;15.23;75.65;101040.70;4901052;60;21169;-85
2021/09/14 01:12:10;;;;;;;14.80;8.60;;;;;;;15.20;75.11;101036.97;4900835;60;21181;-91
2021/09/14 01:17:16;;;;;;;20.47;10.70;;;;;;;15.07;74.77;101037.70;4901137;60;21638;-92
2021/09/14 01:22:31;;;;;;;22.77;13.03;;;;;;;14.99;75.21;101043.69;4901327;60;21222;-91
2021/09/14 01:27:37;;;;;;;22.37;11.83;;;;;;;14.93;75.45;101054.90;4901057;60;21188;-90
2021/09/14 01:32:46;;;;;;;28.13;13.17;;;;;;;14.87;75.84;101052.76;4900809;60;21549;-85
2021/09/14 01:37:52;;;;;;;30.03;13.73;;;;;;;14.87;76.28;101056.75;4917663;59;21189;-93
2021/09/14 01:42:58;;;;;;;57.43;17.97;;;;;;;14.93;76.53;101055.39;4915796;60;21181;-90
2021/09/14 01:48:05;;;;;;;43.07;17.93;;;;;;;14.94;76.29;101057.08;4882669;61;21520;-89
2021/09/14 01:53:12;;;;;;;50.57;19.90;;;;;;;14.93;76.33;101058.05;4882847;61;21186;-88
2021/09/14 01:58:19;;;;;;;37.23;16.20;;;;;;;14.87;76.12;101058.08;4882967;61;21126;-85
2021/09/14 02:03:35;;;;;;;35.10;16.47;;;;;;;14.86;76.14;101055.55;4810125;60;21133;-90
2021/09/14 02:23:46;;;;;;;21.53;12.90;;;;;;;14.80;76.10;101053.44;4859741;61;21181;-86
2021/09/14 03:02:00;;;;;;;34.70;15.43;;;;;;;14.09;76.67;101055.41;4990084;59;21181;-89
2021/09/14 03:07:06;;;;;;;32.67;16.13;;;;;;;13.95;77.49;101066.36;4990775;59;21200;-88
2021/09/14 03:12:14;;;;;;;46.30;24.67;;;;;;;14.05;78.81;101069.93;4991336;59;21115;-89
2021/09/14 03:17:22;;;;;;;47.30;23.73;;;;;;;14.24;79.16;101059.08;4990740;59;21210;-87
2021/09/14 03:22:28;;;;;;;40.58;22.70;;;;;;;14.42;79.33;101061.06;4905942;59;1139004;-89
2021/09/14 03:27:36;;;;;;;33.67;18.93;;;;;;;14.50;79.15;101055.11;4895022;59;1143040;-90
2021/09/14 03:32:42;;;;;;;41.20;22.77;;;;;;;14.58;79.56;101048.62;4894505;59;1142828;-88
2021/09/14 03:37:47;;;;;;;38.03;21.27;;;;;;;14.52;79.13;101044.30;4895352;59;1142954;-90
2021/09/14 03:42:54;;;;;;;26.37;14.53;;;;;;;14.59;79.71;101038.82;4811731;58;1143053;-86
2021/09/14 03:48:01;;;;;;;34.93;15.83;;;;;;;14.54;79.03;101030.37;4808915;59;1143003;-91
2021/09/14 03:53:09;;;;;;;32.77;18.40;;;;;;;14.53;79.78;101036.67;4809447;59;1143155;-88
2021/09/14 03:58:15;;;;;;;25.33;15.70;;;;;;;14.61;80.25;101045.70;4790966;59;1142911;-88
2021/09/14 04:03:27;;;;;;;22.73;13.05;;;;;;;14.70;80.08;101040.91;4804497;59;1143165;-90
2021/09/14 04:13:54;;;;;;;28.13;13.10;;;;;;;14.84;80.07;101041.03;4799217;59;1143273;-92
2021/09/14 04:19:00;;;;;;;30.27;14.60;;;;;;;14.76;79.87;101044.87;4799456;59;1143085;-86
2021/09/14 04:24:07;;;;;;;29.33;14.23;;;;;;;14.78;80.28;101052.23;4800103;59;1143048;-91
2021/09/14 04:29:14;;;;;;;24.00;9.23;;;;;;;14.59;79.68;101044.98;4800764;59;1143259;-86
2021/09/14 04:34:21;;;;;;;17.48;8.38;;;;;;;14.67;80.26;101061.13;4799230;59;1141057;-86
2021/09/14 04:39:29;;;;;;;35.40;7.80;;;;;;;14.71;80.65;101061.72;4799496;59;1141170;-88
2021/09/14 04:44:35;;;;;;;27.63;6.73;;;;;;;14.74;81.06;101055.65;4875957;59;1141115;-85
2021/09/14 04:49:41;;;;;;;26.03;6.47;;;;;;;14.75;80.95;101057.82;4811134;59;1141045;-87
2021/09/14 04:54:47;;;;;;;24.90;6.97;;;;;;;14.74;81.09;101058.31;4808488;59;1141096;-85
2021/09/14 04:59:54;;;;;;;27.70;6.37;;;;;;;14.74;81.37;101056.13;4807915;59;1141055;-89
2021/09/14 05:04:59;;;;;;;20.77;5.00;;;;;;;14.73;81.46;101066.43;4808323;59;1141009;-86
2021/09/14 05:10:08;;;;;;;17.00;8.53;;;;;;;14.73;82.01;101067.76;4723843;61;1141070;-89
2021/09/14 05:15:16;;;;;;;22.90;7.43;;;;;;;14.77;81.96;101071.36;4753455;60;1141216;-85
2021/09/14 05:20:23;;;;;;;19.05;8.25;;;;;;;14.60;81.49;101072.45;4722830;61;1141069;-86
2021/09/14 05:25:29;;;;;;;18.82;7.62;;;;;;;14.48;82.00;101073.51;4808304;59;1140972;-85
2021/09/14 05:30:34;;;;;;;16.23;9.93;;;;;;;14.36;82.45;101076.18;4808357;59;1141061;-87
2021/09/14 05:35:50;;;;;;;29.13;10.60;;;;;;;14.26;82.66;101075.28;4807987;59;1141034;-84
2021/09/14 05:40:59;;;;;;;14.30;8.03;;;;;;;14.27;83.03;101074.31;4820439;59;1143158;-87
2021/09/14 05:46:06;;;;;;;23.73;9.27;;;;;;;14.43;84.03;101072.08;4884050;59;1140960;-86
2021/09/14 05:51:14;;;;;;;15.67;6.83;;;;;;;14.58;83.90;101074.40;4885286;59;1146909;-88
2021/09/14 05:56:21;;;;;;;17.50;6.90;;;;;;;14.64;84.14;101071.23;4883705;59;1141022;-87
2021/09/14 06:01:29;;;;;;;12.68;6.25;;;;;;;14.77;84.42;101067.86;4885743;59;1141423;-85
2021/09/14 06:06:34;;;;;;;33.83;6.47;;;;;;;14.93;84.29;101068.22;4883976;59;1141048;-86
2021/09/14 06:11:40;;;;;;;20.93;6.27;;;;;;;15.07;84.15;101071.84;4882505;59;1141095;-86
2021/09/14 06:16:47;;;;;;;10.97;5.17;;;;;;;15.20;84.21;101072.94;4883663;59;1140977;-86
2021/09/14 06:21:54;;;;;;;18.50;4.77;;;;;;;15.30;84.12;101072.47;4883439;59;1141237;-86
2021/09/14 06:27:00;;;;;;;19.00;5.20;;;;;;;15.39;83.73;101073.49;4883666;59;1140999;-87
2021/09/14 06:32:09;;;;;;;13.07;5.13;;;;;;;15.51;83.71;101077.73;4883209;59;1140922;-87
2021/09/14 06:37:34;;;;;;;12.87;5.83;;;;;;;15.54;83.26;101072.13;4892467;59;1140816;-87
2021/09/14 06:42:40;;;;;;;13.97;5.33;;;;;;;15.59;83.44;101083.72;4823258;59;1140982;-84
2021/09/14 06:48:06;;;;;;;23.07;5.60;;;;;;;15.68;83.30;101077.58;4763636;61;1140884;-88
2021/09/14 06:53:12;;;;;;;12.30;6.00;;;;;;;15.73;82.83;101084.69;4783121;60;1140912;-87
2021/09/14 06:58:18;;;;;;;15.50;6.43;;;;;;;15.78;82.96;101085.94;4777572;60;1141222;-85
2021/09/14 07:03:23;;;;;;;12.53;4.63;;;;;;;15.78;82.96;101085.94;4778853;61;1140975;-85
2021/09/14 07:08:29;;;;;;;13.17;4.83;;;;;;;15.88;82.74;101101.13;4778151;61;1141111;-87
2021/09/14 07:13:35;;;;;;;13.93;4.57;;;;;;;15.89;82.29;101099.62;4778081;61;1141062;-86
2021/09/14 07:18:42;;;;;;;19.10;5.13;;;;;;;15.94;82.40;101097.39;4777808;61;1140923;-88
2021/09/14 07:23:48;;;;;;;9.90;4.33;;;;;;;16.03;82.89;101099.24;4825840;60;1140885;-85
2021/09/14 07:28:53;;;;;;;7.37;4.33;;;;;;;16.14;82.38;101105.77;4823721;60;1138899;-85
2021/09/14 07:34:00;;;;;;;10.70;3.83;;;;;;;16.18;81.92;101108.52;4820180;60;1138953;-89
2021/09/14 07:39:08;;;;;;;10.03;3.90;;;;;;;16.19;81.13;101114.70;4824350;60;1140964;-84
2021/09/14 07:44:14;;;;;;;11.33;4.07;;;;;;;16.21;81.02;101114.03;4807527;60;1140821;-85
2021/09/14 07:49:20;;;;;;;7.80;3.83;;;;;;;16.26;81.11;101122.47;4787716;60;1141110;-86
2021/09/14 07:54:26;;;;;;;11.03;4.30;;;;;;;16.30;80.22;101119.03;4788867;60;1138906;-89
2021/09/14 07:59:34;;;;;;;9.83;3.85;;;;;;;16.30;80.07;101128.38;4806951;60;1140884;-91
2021/09/14 08:04:40;;;;;;;8.67;3.30;;;;;;;16.31;79.49;101128.73;4858599;60;1138772;-86
2021/09/14 08:09:46;;;;;;;10.40;4.17;;;;;;;16.33;79.61;101122.77;4796630;60;1138974;-85
2021/09/14 08:14:52;;;;;;;21.37;3.63;;;;;;;16.39;79.65;101129.70;4757354;61;1141265;-87
2021/09/14 08:19:57;;;;;;;10.40;4.10;;;;;;;16.46;79.61;101134.84;4757684;61;1141212;-85
2021/09/14 08:25:05;;;;;;;17.77;4.43;;;;;;;16.54;79.50;101128.28;4758799;61;1141025;-86
2021/09/14 08:30:11;;;;;;;10.97;3.67;;;;;;;16.66;79.62;101116.97;4759168;61;1141112;-84
2021/09/14 08:35:17;;;;;;;12.50;4.03;;;;;;;17.00;80.18;101122.66;4759159;61;1151954;-87
2021/09/14 08:40:23;;;;;;;9.40;3.75;;;;;;;17.25;79.57;101117.16;4764569;60;1141263;-86
2021/09/14 08:45:29;;;;;;;11.40;2.90;;;;;;;17.46;78.68;101128.44;4855609;60;1139110;-79
2021/09/14 08:50:35;;;;;;;7.07;2.70;;;;;;;17.62;78.49;101134.48;4858794;59;1141222;-78
2021/09/14 08:55:40;;;;;;;6.80;2.60;;;;;;;17.71;77.12;101129.62;4851691;59;1139090;-83
2021/09/14 09:00:47;;;;;;;14.00;4.20;;;;;;;17.86;76.98;101131.28;4851468;60;1139102;-84
2021/09/14 09:05:53;;;;;;;7.53;3.07;;;;;;;17.96;76.44;101132.05;4846129;60;1141116;-85
2021/09/14 09:11:13;;;;;;;11.87;3.40;;;;;;;18.14;75.46;101122.19;4854691;60;1139016;-88
2021/09/14 09:16:25;;;;;;;8.73;3.10;;;;;;;18.32;75.44;101127.55;4854738;59;1141301;-83
2021/09/14 09:21:35;;;;;;;5.53;2.90;;;;;;;18.43;74.53;101128.64;4854526;60;1139079;-83
2021/09/14 09:26:43;;;;;;;4.70;2.40;;;;;;;18.43;73.79;101127.80;4854694;60;1139259;-84
2021/09/14 09:31:51;;;;;;;11.17;3.83;;;;;;;18.28;73.22;101130.18;4854685;60;1138979;-85
2021/09/14 09:37:09;;;;;;;18.63;3.50;;;;;;;18.26;73.60;101133.50;4851749;60;1140979;-83
2021/09/14 09:42:17;;;;;;;9.13;2.80;;;;;;;18.29;73.59;101130.53;4852820;60;1141136;-82
2021/09/14 09:47:23;;;;;;;7.13;3.30;;;;;;;18.31;73.61;101122.34;4853670;60;1139082;-84
2021/09/14 09:52:30;;;;;;;12.30;3.60;;;;;;;18.34;73.57;101120.17;4854111;58;1138950;-85
2021/09/14 09:57:37;;;;;;;7.83;3.23;;;;;;;18.34;73.22;101119.33;4853250;60;1141197;-83
2021/09/14 10:03:02;;;;;;;6.00;3.20;;;;;;;18.36;73.29;101126.22;4853719;59;1138898;-86
2021/09/14 10:08:16;;;;;;;9.70;3.17;;;;;;;18.26;72.99;101130.33;4853986;60;1138842;-84
2021/09/14 10:13:35;;;;;;;11.10;3.20;;;;;;;18.25;73.42;101121.11;4853944;60;1138930;-88
2021/09/14 10:18:41;;;;;;;5.33;2.97;;;;;;;18.26;72.65;101116.09;4853576;60;1141051;-86
2021/09/14 10:23:55;;;;;;;5.97;3.47;;;;;;;18.29;72.55;101114.45;4853488;60;1138993;-86
2021/09/14 10:29:13;;;;;;;10.43;5.03;;;;;;;18.26;72.25;101108.06;4852381;60;1138884;-84
2021/09/14 10:34:18;;;;;;;7.20;3.30;;;;;;;18.35;72.22;101112.98;4852201;60;1140997;-84
2021/09/14 10:39:25;;;;;;;11.68;3.58;;;;;;;18.38;71.87;101112.18;4852269;59;1138900;-86
2021/09/14 10:44:33;;;;;;;10.77;4.10;;;;;;;18.43;71.72;101107.70;4850197;59;1141118;-84
2021/09/14 10:50:03;;;;;;;3.93;2.63;;;;;;;18.46;71.41;101102.05;4788383;60;1141013;-84
2021/09/14 10:55:19;;;;;;;9.63;2.87;;;;;;;18.54;71.87;101097.58;4760198;58;1139145;-83
2021/09/14 11:00:33;;;;;;;8.20;3.27;;;;;;;18.63;71.28;101099.86;4757887;59;1139048;-84
2021/09/14 11:05:39;;;;;;;5.87;2.50;;;;;;;18.73;70.63;101095.73;4794220;59;1138814;-82
2021/09/14 11:10:46;;;;;;;7.58;3.27;;;;;;;18.79;70.62;101101.28;4798208;59;1138980;-81
2021/09/14 11:16:04;;;;;;;6.73;3.10;;;;;;;18.98;70.95;101098.88;4797844;59;1139116;-86
2021/09/14 11:21:14;;;;;;;7.83;3.15;;;;;;;19.12;70.09;101098.78;4797639;59;1138913;-83
2021/09/14 11:26:21;;;;;;;5.90;2.90;;;;;;;19.19;69.51;101095.32;4797858;59;1138886;-85
2021/09/14 11:31:35;;;;;;;5.63;2.83;;;;;;;19.24;69.48;101102.89;4797748;59;1138841;-87
2021/09/14 11:36:40;;;;;;;9.95;3.27;;;;;;;19.28;69.62;101095.68;4798077;59;1138930;-88
2021/09/14 11:41:47;;;;;;;5.77;2.80;;;;;;;19.32;69.26;101092.19;4797702;59;1138986;-85
2021/09/14 11:46:52;;;;;;;8.13;3.10;;;;;;;19.36;69.75;101092.70;4798240;59;1139099;-85
2021/09/14 11:52:06;;;;;;;18.05;4.25;;;;;;;19.46;69.92;101088.88;4798105;59;1139064;-82
2021/09/14 11:57:23;;;;;;;10.20;2.80;;;;;;;19.47;69.18;101089.72;4798135;59;1140961;-86
2021/09/14 12:02:25;;;;;;;5.62;2.80;;;;;;;19.46;69.35;101090.22;4797463;59;1140969;-87
2021/09/14 12:07:31;;;;;;;9.53;3.12;;;;;;;19.44;68.75;101084.17;4796989;59;1138834;-86
2021/09/14 12:12:36;;;;;;;17.87;3.30;;;;;;;19.43;69.37;101078.97;4723930;60;1139087;-84
2021/09/14 12:17:42;;;;;;;6.47;3.12;;;;;;;19.44;69.78;101077.97;4723931;60;1141040;-84
2021/09/14 12:22:48;;;;;;;9.20;2.93;;;;;;;19.46;69.44;101081.33;4721574;60;1139172;-83
2021/09/14 12:27:54;;;;;;;20.08;3.28;;;;;;;19.44;69.23;101084.17;4719818;60;1138928;-85
2021/09/14 12:32:59;;;;;;;18.77;3.17;;;;;;;19.42;68.35;101088.02;4721316;60;1141135;-82
2021/09/14 12:38:05;;;;;;;15.18;3.20;;;;;;;19.34;68.41;101088.84;4721404;60;1141190;-86
2021/09/14 12:43:10;;;;;;;13.85;3.20;;;;;;;19.35;68.92;101089.19;4767222;59;1141093;-86
2021/09/14 12:48:16;;;;;;;10.50;3.62;;;;;;;19.38;69.13;101079.98;4796720;59;1141027;-87
2021/09/14 12:53:22;;;;;;;14.15;3.00;;;;;;;19.39;68.19;101081.16;4796919;59;1141042;-86
2021/09/14 12:58:28;;;;;;;9.25;2.87;;;;;;;19.46;68.62;101084.02;4851874;59;1141252;-85
2021/09/14 13:03:33;;;;;;;5.90;3.33;;;;;;;19.50;68.06;101072.84;4852973;59;1139033;-85
2021/09/14 13:08:39;;;;;;;6.70;2.83;;;;;;;19.65;68.07;101069.02;4854172;60;1138887;-84
2021/09/14 13:19:08;;;;;;;14.25;5.78;;;;;;;20.07;67.54;101050.09;4854334;60;1139620;-83
2021/09/14 13:24:14;;;;;;;10.48;2.83;;;;;;;20.17;66.67;101046.73;4854290;60;1140988;-82
2021/09/14 13:29:20;;;;;;;9.98;3.30;;;;;;;20.24;66.49;101038.84;4853959;60;1141011;-82
2021/09/14 13:34:25;;;;;;;5.45;1.77;;;;;;;20.34;66.43;101043.03;4775338;60;1139119;-84
2021/09/14 13:39:31;;;;;;;7.10;2.90;;;;;;;20.51;66.54;101043.04;4775250;61;1139027;-83
2021/09/14 13:49:42;;;;;;;6.25;1.82;;;;;;;20.77;65.14;101039.64;4854192;60;1140989;-84
2021/09/14 13:54:48;;;;;;;3.77;2.37;;;;;;;20.88;63.29;101031.70;4854373;60;1139009;-85
2021/09/14 13:59:55;;;;;;;8.45;2.60;;;;;;;20.94;63.71;101030.48;4854288;59;1138924;-85
2021/09/14 14:05:01;;;;;;;7.47;2.30;;;;;;;20.91;62.63;101032.20;4854172;60;1139226;-86
2021/09/14 14:10:08;;;;;;;6.87;3.27;;;;;;;20.90;63.30;101022.45;4852457;60;1138983;-84
2021/09/14 14:15:14;;;;;;;10.72;2.33;;;;;;;21.00;62.99;101024.42;4852450;60;1138961;-85
2021/09/14 14:20:20;;;;;;;17.37;2.67;;;;;;;20.96;62.61;101025.77;4795115;59;1141172;-86
2021/09/14 14:25:25;;;;;;;8.58;3.15;;;;;;;20.98;62.97;101019.72;4795168;59;1141180;-85
2021/09/14 14:30:31;;;;;;;11.95;2.75;;;;;;;21.05;63.24;101017.19;4854366;60;1139146;-86
2021/09/14 14:35:37;;;;;;;9.03;2.58;;;;;;;21.16;61.90;101017.30;4854891;60;1141112;-85
2021/09/14 14:40:44;;;;;;;5.05;2.22;;;;;;;21.14;62.06;101012.09;4846185;59;1138879;-84
2021/09/14 14:45:50;;;;;;;3.83;2.92;;;;;;;21.20;62.65;101016.81;4777900;61;1138881;-84
2021/09/14 14:50:56;;;;;;;5.40;2.55;;;;;;;21.23;62.06;101008.90;4776749;61;1138937;-86
2021/09/14 14:56:02;;;;;;;9.25;2.55;;;;;;;21.28;62.27;101012.72;4777115;60;1139083;-88
2021/09/14 15:01:08;;;;;;;8.88;2.70;;;;;;;21.15;61.79;101008.89;4777312;60;1139026;-83
2021/09/14 15:06:14;;;;;;;4.15;2.40;;;;;;;21.14;61.87;101009.90;4776773;61;1138953;-82
2021/09/14 15:11:19;;;;;;;5.15;2.58;;;;;;;21.14;62.05;101003.17;4721144;60;1139228;-84
2021/09/14 15:16:25;;;;;;;11.48;4.87;;;;;;;21.08;61.75;101001.51;4721073;60;1139096;-83
2021/09/14 15:21:30;;;;;;;7.25;3.00;;;;;;;21.01;61.79;100995.17;4777461;61;1140961;-88
2021/09/14 15:26:36;;;;;;;17.65;2.92;;;;;;;21.00;62.02;100996.69;4777812;61;1138922;-84
2021/09/14 15:31:42;;;;;;;12.25;2.83;;;;;;;21.00;61.76;100997.53;4777094;61;1140988;-87
2021/09/14 15:36:48;;;;;;;5.03;2.15;;;;;;;21.02;62.16;100991.47;4776792;61;1140927;-87
2021/09/14 15:41:56;;;;;;;18.15;3.70;;;;;;;21.02;61.88;100987.44;4803947;60;1139002;-85
2021/09/14 15:47:01;;;;;;;8.58;2.77;;;;;;;21.05;62.11;100987.09;4853420;60;1140930;-84
2021/09/14 15:52:08;;;;;;;12.50;2.37;;;;;;;21.04;61.76;100989.45;4853684;60;1138879;-85
2021/09/14 15:57:14;;;;;;;11.00;3.12;;;;;;;21.03;61.94;100985.59;4854817;60;1141154;-86
2021/09/14 16:02:19;;;;;;;13.78;4.58;;;;;;;21.03;61.85;100985.59;4859379;59;1141133;-86
2021/09/14 16:07:25;;;;;;;13.50;4.10;;;;;;;20.97;62.17;100982.24;4884337;59;1140974;-85
2021/09/14 16:12:31;;;;;;;7.47;3.00;;;;;;;20.91;62.28;100988.34;4884350;59;1141121;-82
2021/09/14 16:17:37;;;;;;;29.23;3.50;;;;;;;20.83;62.42;100988.36;4884162;59;1139336;-84
2021/09/14 16:22:43;;;;;;;14.47;3.15;;;;;;;20.75;62.50;100990.59;4884050;59;1140939;-84
2021/09/14 16:27:50;;;;;;;94.75;5.47;;;;;;;20.67;62.92;100987.41;4884078;59;1141091;-83
2021/09/14 16:32:56;;;;;;;11.90;4.12;;;;;;;20.62;63.30;100991.11;4884037;59;1141064;-84
2021/09/14 16:38:02;;;;;;;11.50;3.62;;;;;;;20.45;63.25;100990.84;4884069;59;1141227;-84
2021/09/14 16:43:07;;;;;;;16.65;4.78;;;;;;;20.26;63.09;100992.02;4837788;59;1141200;-84
2021/09/14 16:48:14;;;;;;;8.64;3.56;;;;;;;20.08;63.03;100995.89;4823875;60;1141241;-86
2021/09/14 16:53:20;;;;;;;6.03;3.87;;;;;;;19.91;63.26;100989.68;4807993;60;1139249;-84
2021/09/14 16:58:26;;;;;;;17.90;3.80;;;;;;;19.77;63.45;100999.75;4807897;60;1139222;-84
2021/09/14 17:03:35;;;;;;;13.30;4.10;;;;;;;19.61;63.57;101005.44;4807732;60;1141059;-84
2021/09/14 17:08:43;;;;;;;8.25;3.75;;;;;;;19.23;63.86;100993.44;4807503;60;1141163;-83
2021/09/14 17:13:49;;;;;;;8.08;3.35;;;;;;;19.23;63.86;100993.44;4873471;59;1139113;-83
2021/09/14 17:18:55;;;;;;;8.90;3.98;;;;;;;19.11;64.16;101001.42;4885731;59;1138911;-83
2021/09/14 17:24:01;;;;;;;15.28;4.33;;;;;;;18.96;64.45;101004.38;4885775;59;1138911;-81
2021/09/14 17:29:08;;;;;;;20.75;5.03;;;;;;;18.79;64.54;101007.48;4885075;59;1140990;-82
2021/09/14 17:34:16;;;;;;;50.05;7.05;;;;;;;18.65;65.07;101012.60;4875184;59;1141052;-83
2021/09/14 17:39:21;;;;;;;46.02;7.67;;;;;;;18.48;65.30;101007.14;4884684;59;1140996;-86
2021/09/14 17:44:27;;;;;;;18.10;5.60;;;;;;;18.42;65.64;101012.28;4885720;59;1141184;-83
2021/09/14 17:49:33;;;;;;;11.05;3.90;;;;;;;18.40;65.77;101009.75;4885067;59;1141157;-80
2021/09/14 17:54:39;;;;;;;10.82;3.75;;;;;;;18.27;65.49;101014.19;4883699;59;1141146;-81
2021/09/14 17:59:45;;;;;;;14.00;4.37;;;;;;;18.11;65.94;101022.10;4893431;59;1141007;-85
2021/09/14 18:04:51;;;;;;;20.02;5.20;;;;;;;17.98;66.11;101020.33;4857250;59;1141149;-86
2021/09/14 18:09:57;;;;;;;13.00;4.45;;;;;;;17.84;66.44;101024.89;4829576;60;1140981;-83
2021/09/14 18:15:04;;;;;;;14.17;4.77;;;;;;;17.82;66.88;101029.05;4825934;60;1140902;-83
2021/09/14 18:20:13;;;;;;;11.68;3.58;;;;;;;17.75;67.16;101036.49;4824667;60;1140995;-84
2021/09/14 18:25:19;;;;;;;17.62;4.33;;;;;;;17.71;67.53;101031.13;4862896;60;1140969;-86
2021/09/14 18:30:24;;;;;;;15.18;4.12;;;;;;;17.50;67.53;101021.52;4835819;60;1141193;-84
2021/09/14 18:35:30;;;;;;;6.95;3.90;;;;;;;17.42;68.01;101031.27;4781260;61;1141092;-83
2021/09/14 18:40:37;;;;;;;12.63;3.87;;;;;;;17.29;68.05;101035.64;4788757;60;1138987;-81
2021/09/14 18:45:43;;;;;;;15.57;4.37;;;;;;;17.19;68.29;101034.38;4855995;60;1141069;-82
2021/09/14 18:50:49;;;;;;;9.37;3.73;;;;;;;17.14;68.49;101037.14;4846104;60;1141207;-81
2021/09/14 18:55:55;;;;;;;8.70;3.93;;;;;;;17.07;68.66;101031.56;4784140;60;1138970;-84
2021/09/14 19:01:01;;;;;;;9.90;4.30;;;;;;;17.11;69.20;101028.11;4839086;60;1138904;-81
2021/09/14 19:06:07;;;;;;;14.53;5.15;;;;;;;17.05;68.75;101036.70;4866576;59;1139176;-84
2021/09/14 19:11:15;;;;;;;16.97;4.63;;;;;;;17.04;69.22;101031.85;4897353;59;1141109;-83
2021/09/14 19:16:22;;;;;;;9.20;4.65;;;;;;;17.04;69.34;101021.66;4884234;59;1141252;-81
2021/09/14 19:21:28;;;;;;;10.80;4.30;;;;;;;16.93;68.97;101025.87;4885693;59;1139458;-82
2021/09/14 19:26:33;;;;;;;9.63;4.73;;;;;;;16.81;69.16;101030.53;4885991;59;1141201;-82
2021/09/14 19:31:39;;;;;;;10.00;5.30;;;;;;;16.70;69.42;101027.56;4886258;59;1138925;-82
2021/09/14 19:36:45;;;;;;;10.97;5.03;;;;;;;16.71;69.76;101029.73;4885084;59;1141041;-82
2021/09/14 19:41:51;;;;;;;9.28;4.95;;;;;;;16.77;69.80;101027.34;4883816;59;1140906;-82
2021/09/14 19:46:57;;;;;;;15.93;5.47;;;;;;;16.77;69.82;101021.99;4884226;59;1138890;-82
2021/09/14 19:52:03;;;;;;;15.47;5.97;;;;;;;16.81;69.79;101018.02;4885923;59;1141003;-82
2021/09/14 19:57:09;;;;;;;9.40;5.30;;;;;;;16.82;69.86;101019.70;4885905;59;1141025;-83
2021/09/14 20:02:15;;;;;;;8.13;4.80;;;;;;;16.75;69.62;101021.30;4885911;59;1139228;-82
2021/09/14 20:07:21;;;;;;;8.15;4.67;;;;;;;16.66;69.49;101026.65;4879337;59;1139133;-82
2021/09/14 20:12:27;;;;;;;11.43;5.80;;;;;;;16.54;69.54;101016.13;4863828;60;1138769;-83
2021/09/14 20:17:33;;;;;;;10.13;5.17;;;;;;;16.36;69.70;101016.52;4863487;60;1140879;-82
2021/09/14 20:22:39;;;;;;;14.60;5.73;;;;;;;16.27;69.83;101019.22;4863471;60;1140912;-82
2021/09/14 20:27:44;;;;;;;7.07;4.60;;;;;;;16.28;70.17;101015.08;4863315;60;1140993;-82
2021/09/14 20:32:50;;;;;;;7.83;4.80;;;;;;;16.26;70.49;101009.03;4863507;60;1139001;-82
2021/09/14 20:37:56;;;;;;;7.20;4.30;;;;;;;16.21;70.33;101016.63;4863726;59;1138871;-82
2021/09/14 20:43:02;;;;;;;13.60;5.07;;;;;;;16.13;70.62;101016.02;4864323;60;1138764;-83
2021/09/14 20:48:08;;;;;;;9.43;5.23;;;;;;;16.11;70.72;101011.80;4864000;60;1140939;-81
2021/09/14 20:53:14;;;;;;;11.48;5.72;;;;;;;16.03;70.71;101010.35;4864018;60;1138960;-82
2021/09/14 20:58:20;;;;;;;12.30;5.47;;;;;;;15.97;70.89;101018.42;4864723;60;1140947;-81
2021/09/14 21:03:26;;;;;;;11.88;5.08;;;;;;;15.95;70.98;101011.05;4864191;60;1140919;-84
2021/09/14 21:08:32;;;;;;;11.43;5.78;;;;;;;15.97;71.14;101021.58;4864035;59;1141064;-83
2021/09/14 21:13:37;;;;;;;11.27;6.70;;;;;;;15.93;70.74;101033.50;4864115;60;1141125;-84
2021/09/14 21:18:44;;;;;;;11.43;6.33;;;;;;;15.87;71.18;101026.93;4864223;60;1140860;-82
2021/09/14 21:23:49;;;;;;;10.63;6.20;;;;;;;15.85;71.26;101022.71;4864027;60;1141069;-81
2021/09/14 21:28:55;;;;;;;12.07;6.03;;;;;;;15.82;71.43;101027.83;4864133;60;1141116;-82
2021/09/14 21:34:00;;;;;;;9.47;6.53;;;;;;;15.80;71.37;101023.13;4864155;60;1140814;-84
2021/09/14 21:39:05;;;;;;;13.23;6.40;;;;;;;15.72;71.29;101019.00;4864270;60;1138759;-83
2021/09/14 21:44:12;;;;;;;13.33;6.30;;;;;;;15.63;71.34;101013.99;4864341;60;1140882;-81
2021/09/14 21:49:19;;;;;;;17.07;6.50;;;;;;;15.62;71.53;101014.13;4864439;60;1140952;-83
2021/09/14 21:54:25;;;;;;;18.17;7.75;;;;;;;15.64;71.93;101012.16;4864371;60;1140897;-81
2021/09/14 21:59:30;;;;;;;10.88;6.97;;;;;;;15.64;72.07;101008.16;4864381;60;1140901;-81
2021/09/14 22:04:37;;;;;;;15.33;6.90;;;;;;;15.63;72.17;101009.14;4864307;59;1141017;-83
2021/09/14 22:09:43;;;;;;;11.47;6.87;;;;;;;15.59;72.10;100999.73;4859934;59;1141155;-82
2021/09/14 22:14:49;;;;;;;11.40;6.10;;;;;;;15.52;72.13;101006.59;4883172;59;1141088;-81
2021/09/14 22:19:56;;;;;;;15.67;6.83;;;;;;;15.47;72.25;100995.00;4883173;59;1141021;-82
2021/09/14 22:25:01;;;;;;;11.17;7.70;;;;;;;15.49;72.41;100995.70;4883583;59;1141073;-84
2021/09/14 22:30:09;;;;;;;15.97;7.50;;;;;;;15.54;72.69;100995.30;4883980;59;1140922;-82
2021/09/14 22:35:14;;;;;;;9.77;7.00;;;;;;;15.54;72.71;100988.14;4886012;59;1140988;-82
2021/09/14 22:40:20;;;;;;;10.78;7.50;;;;;;;15.49;72.61;100984.55;4882842;59;1138934;-82
2021/09/14 22:45:26;;;;;;;12.43;7.63;;;;;;;15.41;72.75;100991.09;4809304;60;1141109;-82
2021/09/14 22:50:33;;;;;;;12.37;7.93;;;;;;;15.36;72.90;100995.98;4809442;60;1141153;-84
2021/09/14 22:55:39;;;;;;;16.13;7.97;;;;;;;15.35;73.07;100988.12;4808725;60;1141149;-84
2021/09/14 23:00:45;;;;;;;15.40;7.97;;;;;;;15.37;73.39;100986.16;4808578;60;1141182;-83
2021/09/14 23:05:52;;;;;;;14.83;8.23;;;;;;;15.37;73.34;100991.00;4808240;60;1140976;-82
2021/09/14 23:10:57;;;;;;;11.63;8.63;;;;;;;15.32;73.38;100983.90;4808611;60;1140994;-82
2021/09/14 23:16:03;;;;;;;18.47;8.83;;;;;;;15.23;73.50;100978.56;4779577;60;1141218;-81
2021/09/14 23:21:09;;;;;;;14.40;7.50;;;;;;;15.15;73.70;100981.90;4779015;61;1141518;-81
2021/09/14 23:26:14;;;;;;;13.63;7.47;;;;;;;15.09;73.73;100986.47;4760753;61;1141140;-82
2021/09/14 23:31:22;;;;;;;11.10;7.70;;;;;;;15.03;73.71;100990.50;4779613;60;1141118;-84
2021/09/14 23:36:28;;;;;;;14.07;8.30;;;;;;;14.97;73.96;100982.23;4779411;61;1141262;-83
2021/09/14 23:41:33;;;;;;;11.67;8.70;;;;;;;14.92;74.31;100983.12;4800930;60;1140998;-83
2021/09/14 23:46:39;;;;;;;15.10;7.80;;;;;;;14.88;74.48;100981.20;4854192;60;1141071;-81
2021/09/14 23:51:45;;;;;;;13.10;8.27;;;;;;;14.86;74.64;100974.33;4854695;60;1141268;-84
2021/09/14 23:56:50;;;;;;;12.47;7.57;;;;;;;14.81;74.76;100969.42;4854233;60;1141045;-82
